Schroon Lake, NY

8:14 AM EDT on October 01, 2014 (GMT -0400)
KNYSCHRO2 | Change Station
CLOSE
Current Station
Personal Weather Station
Location: Schroon Lake, NY
Elevation: 866 ft
Nearby Weather Stations

Elev 866 ft 43.84 °N, 73.76 °W | Updated 38 seconds ago

Overcast
Overcast
56.8 °F
Feels Like 56.8 °F
N
0.0
Wind Variable Wind from NNW
Gusts 0.0 mph

Today
High -- | Low -- °F
--% Chance of Precip.
Yesterday
High -- | Low -- °F
Precip. -- in
6:52 AM 6:36 PM
Waxing Crescent, 47% visible
Pressure 30.10 in
Visibility 3.0 miles
Clouds Overcast 200 ft
Dew Point 56 °F
Humidity 96%
Rainfall 0.00 in
Snow Depth Not available.
UV 0 out of 12
Pollen 1.50 out of 12
Air Quality Not available.
Flu Activity Not available.
METAR K6B0 011135Z AUTO 36003KT 3SM BR OVC002 13/13 A3010 RMK AO2 T01270127

More Conditions Fewer Conditions

Pressure 30.10 in
Visibility 3.0 miles
Clouds Overcast 200 ft
Dew Point 56 °F
Humidity 96%
Rainfall 0.00 in
Snow Depth Not available.
UV 0 out of 12
Pollen 1.50 out of 12
Air Quality Not available.
Flu Activity Not available.
METAR K6B0 011135Z AUTO 36003KT 3SM BR OVC002 13/13 A3010 RMK AO2 T01270127

More Conditions Fewer Conditions

10-Day Weather Forecast

Almanac

Astronomy

Oct. 01, 2014 Rise Set
Actual Time 6:52 AM EDT 6:36 PM EDT
Civil Twilight 6:23 AM EDT 7:04 PM EDT
Nautical Twilight 5:50 AM EDT 7:37 PM EDT
Astronomical Twilight 5:16 AM EDT 8:11 PM EDT
Moon 1:59 PM EDT 11:57 PM EDT
Length of Visible Light 12h 40m
Length of Day
11h 43m
Tomorrow will be 3m 0s shorter.
Waxing Crescent, 47% of the Moon is Illuminated
Today
Waxing Crescent
Oct 1
First Quarter
Oct 8
Full
Oct 15
Last Quarter
Oct 23
New

Today's Extremes

State Highs State Lows

Community

WunderPhotos

Upload Photos

1,757,914 photos uploaded!

WunderBlogs® & News

Nearby

Air Quality

  Air Quality AQ Index Pollutant
Wednesday Good
PM2.5

Snow Depth

Station Depth Elevation
No new snow has been reported.

Earthquake Activity

City Distance Mag. Time & Date
No recent earthquake activity has been reported nearby.
Minimum magnitude displayed is 2.5.

Coastal Water Temperatures

Place Temperature
No Stations Reporting

Nearby Weather Stations